createdAt,value
2023-06-19T00:00:31.366Z,19.26
2023-06-19T00:02:58.216Z,19.16
2023-06-19T00:05:26.056Z,19.12
2023-06-19T00:07:52.835Z,19.15
2023-06-19T00:10:19.361Z,19.16
2023-06-19T00:12:45.861Z,19.23
2023-06-19T00:15:12.523Z,19.27
2023-06-19T00:17:39.080Z,19.33
2023-06-19T00:20:09.140Z,19.34
2023-06-19T00:22:35.571Z,19.31
2023-06-19T00:25:02.118Z,19.27
2023-06-19T00:27:28.547Z,19.32
2023-06-19T00:29:55.067Z,19.35
2023-06-19T00:32:21.535Z,19.43
2023-06-19T00:34:48.045Z,19.35
2023-06-19T00:37:14.608Z,19.33
2023-06-19T00:39:45.023Z,19.49
2023-06-19T00:42:11.773Z,19.48
2023-06-19T00:44:38.219Z,19.48
2023-06-19T00:47:05.390Z,19.49
2023-06-19T00:49:32.650Z,19.44
2023-06-19T00:51:59.354Z,19.46
2023-06-19T00:54:26.386Z,19.44
2023-06-19T00:56:53.518Z,19.35
2023-06-19T00:59:20.753Z,19.31
2023-06-19T01:01:47.581Z,19.24
2023-06-19T01:04:14.684Z,19.26
2023-06-19T01:06:59.790Z,19.26
2023-06-19T01:09:32.071Z,19.26
2023-06-19T01:12:05.868Z,19.17
2023-06-19T01:14:38.937Z,19.14
2023-06-19T01:17:06.504Z,19.08
2023-06-19T01:19:33.061Z,19.12
2023-06-19T01:22:04.109Z,19.07
2023-06-19T01:24:30.571Z,19.12
2023-06-19T01:26:57.204Z,19.19
2023-06-19T01:29:23.863Z,19.16
2023-06-19T01:31:53.924Z,19.05
2023-06-19T01:34:22.438Z,19.17
2023-06-19T01:36:52.559Z,19.15
2023-06-19T01:39:20.696Z,19.04
2023-06-19T01:41:48.385Z,19.25
2023-06-19T01:44:15.086Z,19.19
2023-06-19T01:46:41.678Z,19.08
2023-06-19T01:49:10.063Z,19.17
2023-06-19T01:51:36.938Z,19.15
2023-06-19T01:54:04.081Z,19.07
2023-06-19T01:56:30.533Z,19.13
2023-06-19T01:58:56.946Z,19.13
2023-06-19T02:01:23.746Z,19.05
2023-06-19T02:03:50.252Z,19.09
2023-06-19T02:06:16.697Z,19.09
2023-06-19T02:08:43.150Z,19.11
2023-06-19T02:11:09.589Z,19.17
2023-06-19T02:13:37.114Z,19.13
2023-06-19T02:16:05.207Z,19.05
2023-06-19T02:18:31.640Z,19.11
2023-06-19T02:20:58.073Z,19.12
2023-06-19T02:23:24.657Z,19.16
2023-06-19T02:25:51.086Z,18.98
2023-06-19T02:28:17.499Z,19.08
2023-06-19T02:30:43.917Z,19.09
2023-06-19T02:33:10.375Z,19.07
2023-06-19T02:35:36.817Z,19.05
2023-06-19T02:38:05.629Z,19.05
2023-06-19T02:40:32.050Z,19.03
2023-06-19T02:42:58.452Z,19.19
2023-06-19T02:45:24.891Z,19.11
2023-06-19T02:47:53.028Z,19.20
2023-06-19T02:50:19.499Z,19.17
2023-06-19T02:52:45.914Z,18.95
2023-06-19T02:55:12.332Z,19.05
2023-06-19T02:57:38.768Z,19.08
2023-06-19T03:00:10.255Z,19.07
2023-06-19T03:02:36.754Z,18.96
2023-06-19T03:05:03.766Z,19.01
2023-06-19T03:07:30.367Z,19.14
2023-06-19T03:09:56.778Z,19.17
2023-06-19T03:12:23.224Z,19.18
2023-06-19T03:14:49.639Z,19.30
2023-06-19T03:17:16.083Z,19.34
2023-06-19T03:19:42.539Z,19.36
2023-06-19T03:22:08.950Z,19.38
2023-06-19T03:24:35.445Z,19.34
2023-06-19T03:27:01.951Z,19.39
2023-06-19T03:29:28.904Z,19.40
2023-06-19T03:31:55.342Z,19.43
2023-06-19T03:34:21.774Z,19.45
2023-06-19T03:36:48.223Z,19.46
2023-06-19T03:39:15.175Z,19.43
2023-06-19T03:41:41.621Z,19.47
2023-06-19T03:44:08.116Z,19.59
2023-06-19T03:46:34.609Z,19.56
2023-06-19T03:49:01.124Z,19.47
2023-06-19T03:51:30.142Z,19.64
2023-06-19T03:53:56.629Z,19.52
2023-06-19T03:56:23.121Z,19.58
2023-06-19T03:58:49.547Z,19.45
2023-06-19T04:01:16.022Z,19.63
2023-06-19T04:03:42.570Z,19.70
2023-06-19T04:06:09.051Z,19.51
2023-06-19T04:08:35.501Z,19.56
2023-06-19T04:11:01.947Z,19.58
2023-06-19T04:13:28.378Z,19.67
2023-06-19T04:15:54.817Z,19.65
2023-06-19T04:18:21.275Z,19.78
2023-06-19T04:20:47.933Z,19.85
2023-06-19T04:23:14.424Z,19.90
2023-06-19T04:25:40.841Z,19.73
2023-06-19T04:28:07.309Z,19.77
2023-06-19T04:30:33.726Z,19.74
2023-06-19T04:33:00.291Z,19.78
2023-06-19T04:35:27.608Z,19.89
2023-06-19T04:37:54.854Z,19.99
2023-06-19T04:40:21.440Z,20.02
2023-06-19T04:42:48.075Z,20.10
2023-06-19T04:45:14.507Z,20.21
2023-06-19T04:47:52.594Z,20.16
2023-06-19T04:50:19.452Z,20.09
2023-06-19T04:52:45.865Z,20.19
2023-06-19T04:55:12.286Z,20.15
2023-06-19T04:57:38.746Z,20.17
2023-06-19T05:00:07.851Z,20.04
2023-06-19T05:02:34.978Z,20.13
2023-06-19T05:05:03.923Z,20.13
2023-06-19T05:07:33.537Z,20.26
2023-06-19T05:10:00.288Z,20.13
2023-06-19T05:12:26.810Z,20.22
2023-06-19T05:14:53.234Z,20.17
2023-06-19T05:17:19.772Z,20.12
2023-06-19T05:19:46.235Z,20.40
2023-06-19T05:22:12.724Z,20.42
2023-06-19T05:24:39.195Z,20.35
2023-06-19T05:27:06.086Z,20.40
2023-06-19T05:29:33.494Z,20.41
2023-06-19T05:31:59.943Z,20.52
2023-06-19T05:34:26.343Z,20.75
2023-06-19T05:36:52.781Z,20.68
2023-06-19T05:39:20.017Z,20.62
2023-06-19T05:41:49.450Z,20.71
2023-06-19T05:44:17.724Z,20.67
2023-06-19T05:46:44.258Z,20.68
2023-06-19T05:49:10.704Z,20.84
2023-06-19T05:51:37.210Z,20.99
2023-06-19T05:54:04.958Z,21.12
2023-06-19T05:56:32.097Z,21.44
2023-06-19T05:58:58.545Z,21.40
2023-06-19T06:01:26.191Z,21.39
2023-06-19T06:03:52.723Z,21.17
2023-06-19T06:06:19.142Z,21.11
2023-06-19T06:08:45.579Z,21.05
2023-06-19T06:11:12.042Z,21.30
2023-06-19T06:13:38.476Z,21.31
2023-06-19T06:16:05.025Z,21.39
2023-06-19T06:18:31.494Z,21.27
2023-06-19T06:21:00.111Z,21.38
2023-06-19T06:23:26.776Z,21.40
2023-06-19T06:25:53.326Z,21.40
2023-06-19T06:28:19.769Z,21.27
2023-06-19T06:30:46.212Z,21.34
2023-06-19T06:33:12.658Z,21.53
2023-06-19T06:35:39.357Z,21.66
2023-06-19T06:38:05.976Z,21.84
2023-06-19T06:40:32.475Z,21.90
2023-06-19T06:42:59.235Z,21.94
2023-06-19T06:45:27.943Z,22.17
2023-06-19T06:47:54.653Z,22.11
2023-06-19T06:50:21.426Z,21.95
2023-06-19T06:52:48.077Z,22.06
2023-06-19T06:55:14.784Z,22.15
2023-06-19T06:57:41.183Z,22.09
2023-06-19T07:00:10.878Z,22.03
2023-06-19T07:02:40.180Z,22.32
2023-06-19T07:05:08.225Z,22.54
2023-06-19T07:07:34.625Z,22.68
2023-06-19T07:10:01.042Z,22.34
2023-06-19T07:12:27.472Z,22.05
2023-06-19T07:14:57.062Z,22.22
2023-06-19T07:17:23.687Z,22.37
2023-06-19T07:19:50.105Z,22.42
2023-06-19T07:22:16.526Z,22.57
2023-06-19T07:24:42.997Z,22.99
2023-06-19T07:27:09.475Z,22.94
2023-06-19T07:29:35.985Z,23.30
2023-06-19T07:32:03.999Z,23.06
2023-06-19T07:34:31.841Z,23.29
2023-06-19T07:36:58.273Z,23.19
2023-06-19T07:39:24.685Z,23.18
2023-06-19T07:41:51.144Z,23.63
2023-06-19T07:44:19.044Z,23.75
2023-06-19T07:46:45.526Z,23.79
2023-06-19T07:49:12.018Z,23.93
2023-06-19T07:51:38.435Z,23.70
2023-06-19T07:54:04.920Z,23.63
2023-06-19T07:56:31.470Z,23.63
2023-06-19T07:58:57.909Z,24.04
2023-06-19T08:01:24.336Z,23.48
2023-06-19T08:03:50.889Z,23.59
2023-06-19T08:06:17.450Z,24.07
2023-06-19T08:08:43.889Z,24.10
2023-06-19T08:11:10.309Z,24.18
2023-06-19T08:13:36.727Z,24.12
2023-06-19T08:16:03.154Z,24.33
2023-06-19T08:18:29.771Z,24.25
2023-06-19T08:20:56.267Z,23.97
2023-06-19T08:23:22.717Z,24.06
2023-06-19T08:25:49.153Z,24.04
2023-06-19T08:28:15.614Z,24.13
2023-06-19T08:30:42.065Z,24.19
2023-06-19T08:33:09.468Z,23.95
2023-06-19T08:35:35.938Z,23.72
2023-06-19T08:38:02.408Z,24.29
2023-06-19T08:40:29.073Z,24.12
2023-06-19T08:42:56.917Z,24.10
2023-06-19T08:45:23.357Z,24.26
2023-06-19T08:47:50.138Z,24.36
2023-06-19T08:50:17.363Z,24.23
2023-06-19T08:52:43.785Z,24.01
2023-06-19T08:55:10.276Z,24.23
2023-06-19T08:57:39.414Z,24.34
2023-06-19T09:00:07.968Z,24.61
2023-06-19T09:02:52.305Z,24.60
2023-06-19T09:05:24.370Z,24.68
2023-06-19T09:07:59.508Z,24.66
2023-06-19T09:10:26.155Z,24.64
2023-06-19T09:13:05.764Z,24.81
2023-06-19T09:15:38.733Z,24.69
2023-06-19T09:18:06.028Z,24.88
2023-06-19T09:20:34.481Z,24.68
2023-06-19T09:23:01.562Z,24.68
2023-06-19T09:25:28.136Z,24.59
2023-06-19T09:27:58.374Z,24.68
2023-06-19T09:30:24.951Z,24.89
2023-06-19T09:32:51.711Z,24.99
2023-06-19T09:35:18.436Z,25.06
2023-06-19T09:37:46.194Z,25.29
2023-06-19T09:40:13.229Z,25.21
2023-06-19T09:42:44.282Z,25.35
2023-06-19T09:45:13.287Z,25.49
2023-06-19T09:47:50.046Z,25.79
2023-06-19T09:50:18.409Z,26.12
2023-06-19T09:52:45.631Z,25.69
2023-06-19T09:55:16.913Z,25.77
2023-06-19T09:57:45.289Z,25.96
2023-06-19T10:00:14.002Z,25.97
2023-06-19T10:02:42.408Z,25.89
2023-06-19T10:05:14.469Z,26.12
2023-06-19T10:07:50.591Z,25.87
2023-06-19T10:10:25.414Z,25.77
2023-06-19T10:12:53.412Z,25.82
2023-06-19T10:15:22.008Z,25.83
2023-06-19T10:17:53.405Z,26.06
2023-06-19T10:20:38.320Z,26.01
2023-06-19T10:23:25.040Z,26.18
2023-06-19T10:25:54.442Z,26.16
2023-06-19T10:28:29.756Z,26.31
2023-06-19T10:31:00.268Z,26.18
2023-06-19T10:33:29.235Z,26.32
2023-06-19T10:35:55.994Z,26.29
2023-06-19T10:38:22.612Z,25.82
2023-06-19T10:40:49.068Z,25.72
2023-06-19T10:43:26.428Z,25.69
2023-06-19T10:45:52.993Z,25.83
2023-06-19T10:48:23.870Z,25.74
2023-06-19T10:50:51.081Z,25.90
2023-06-19T10:53:33.900Z,25.85
2023-06-19T10:56:02.552Z,26.15
2023-06-19T10:58:30.215Z,26.44
2023-06-19T11:00:57.969Z,26.57
2023-06-19T11:03:24.674Z,26.49
2023-06-19T11:05:51.197Z,26.33
2023-06-19T11:08:22.440Z,26.24
2023-06-19T11:10:49.480Z,26.35
2023-06-19T11:13:21.029Z,26.86
2023-06-19T11:15:50.557Z,26.78
2023-06-19T11:18:18.513Z,26.50
2023-06-19T11:20:52.003Z,26.94
2023-06-19T11:23:27.022Z,27.29
2023-06-19T11:25:53.766Z,27.53
2023-06-19T11:28:23.172Z,27.35
2023-06-19T11:30:58.390Z,28.15
2023-06-19T11:33:25.300Z,28.51
2023-06-19T11:35:53.581Z,28.07
2023-06-19T11:38:24.450Z,28.60
2023-06-19T11:40:51.191Z,28.64
2023-06-19T11:43:29.142Z,28.46
2023-06-19T11:46:03.210Z,28.92
2023-06-19T11:48:29.725Z,28.80
2023-06-19T11:50:56.262Z,28.67
2023-06-19T11:53:23.851Z,29.08
2023-06-19T11:55:51.398Z,28.45
2023-06-19T11:58:18.789Z,28.65
2023-06-19T12:00:45.193Z,28.34
2023-06-19T12:03:11.820Z,28.87
2023-06-19T12:05:38.802Z,29.05
2023-06-19T12:08:06.516Z,28.70
2023-06-19T12:10:33.274Z,29.11
2023-06-19T12:12:59.692Z,29.03
2023-06-19T12:15:26.214Z,29.02
2023-06-19T12:17:53.334Z,29.40
2023-06-19T12:20:20.253Z,28.98
2023-06-19T12:22:46.669Z,29.33
2023-06-19T12:25:13.088Z,29.93
2023-06-19T12:27:39.622Z,29.85
2023-06-19T12:30:06.900Z,29.74
2023-06-19T12:32:33.316Z,29.73
2023-06-19T12:34:59.842Z,29.61
2023-06-19T12:37:26.372Z,29.27
2023-06-19T12:39:52.776Z,30.34
2023-06-19T12:42:19.212Z,30.28
2023-06-19T12:44:45.947Z,30.40
2023-06-19T12:47:12.634Z,30.93
2023-06-19T12:49:39.095Z,30.40
2023-06-19T12:52:05.916Z,31.06
2023-06-19T12:54:32.788Z,31.00
2023-06-19T12:56:59.240Z,31.26
2023-06-19T12:59:26.000Z,31.60
2023-06-19T13:01:52.457Z,30.94
2023-06-19T13:04:18.968Z,31.13
2023-06-19T13:06:45.417Z,31.03
2023-06-19T13:09:11.860Z,32.24
2023-06-19T13:11:38.285Z,31.81
2023-06-19T13:14:05.423Z,31.88
2023-06-19T13:16:45.341Z,30.99
2023-06-19T13:19:12.899Z,32.22
2023-06-19T13:21:39.320Z,32.11
2023-06-19T13:24:05.993Z,33.72
2023-06-19T13:26:32.492Z,35.83
2023-06-19T13:28:59.990Z,36.60
2023-06-19T13:31:26.742Z,33.81
2023-06-19T13:33:53.320Z,34.32
2023-06-19T13:36:20.518Z,35.61
2023-06-19T13:38:47.862Z,37.57
2023-06-19T13:41:14.303Z,37.39
2023-06-19T13:43:41.194Z,39.61
2023-06-19T13:46:09.182Z,41.32
2023-06-19T13:48:35.579Z,42.56
2023-06-19T13:51:02.033Z,40.91
2023-06-19T13:53:30.757Z,39.17
2023-06-19T13:55:57.224Z,38.14
2023-06-19T13:58:23.681Z,37.27
2023-06-19T14:00:50.167Z,39.07
2023-06-19T14:03:17.278Z,38.30
2023-06-19T14:05:44.907Z,38.23
2023-06-19T14:08:11.385Z,36.20
2023-06-19T14:10:38.058Z,38.24
2023-06-19T14:13:04.492Z,36.54
2023-06-19T14:15:30.920Z,34.80
2023-06-19T14:17:57.403Z,35.60
2023-06-19T14:20:24.007Z,36.58
2023-06-19T14:22:50.615Z,39.21
2023-06-19T14:25:17.003Z,39.20
2023-06-19T14:27:43.457Z,36.44
2023-06-19T14:30:10.422Z,39.49
2023-06-19T14:32:40.349Z,40.72
2023-06-19T14:35:07.640Z,36.95
2023-06-19T14:37:34.222Z,36.45
2023-06-19T14:40:00.676Z,35.80
2023-06-19T14:42:27.230Z,38.28
2023-06-19T14:44:53.660Z,38.89
2023-06-19T14:47:20.142Z,38.89
2023-06-19T14:49:46.913Z,35.76
2023-06-19T14:52:13.339Z,35.30
2023-06-19T14:54:39.854Z,35.97
2023-06-19T14:57:06.614Z,38.26
2023-06-19T14:59:33.032Z,39.30
2023-06-19T15:01:59.469Z,36.69
2023-06-19T15:04:26.025Z,38.68
2023-06-19T15:06:52.502Z,37.49
2023-06-19T15:09:18.915Z,39.88
2023-06-19T15:11:45.316Z,40.91
2023-06-19T15:14:11.792Z,39.91
2023-06-19T15:16:38.320Z,39.65
2023-06-19T15:19:04.927Z,38.91
2023-06-19T15:21:31.392Z,41.44
2023-06-19T15:23:57.968Z,39.06
2023-06-19T15:26:24.673Z,38.57
2023-06-19T15:28:54.437Z,35.36
2023-06-19T15:31:24.401Z,36.18
2023-06-19T15:33:51.200Z,36.86
2023-06-19T15:36:18.093Z,36.55
2023-06-19T15:38:45.052Z,35.13
2023-06-19T15:41:11.465Z,34.13
2023-06-19T15:43:38.700Z,35.17
2023-06-19T15:46:07.212Z,35.85
2023-06-19T15:48:34.085Z,35.80
2023-06-19T15:51:00.528Z,37.43
2023-06-19T15:53:26.927Z,37.85
2023-06-19T15:55:53.326Z,38.20
2023-06-19T15:58:19.734Z,36.88
2023-06-19T16:00:46.200Z,35.61
2023-06-19T16:03:12.670Z,35.89
2023-06-19T16:05:39.161Z,35.76
2023-06-19T16:08:05.680Z,35.71
2023-06-19T16:10:32.205Z,36.02
2023-06-19T16:12:58.634Z,37.26
2023-06-19T16:15:28.909Z,35.99
2023-06-19T16:17:56.343Z,35.40
2023-06-19T16:20:23.433Z,35.47
2023-06-19T16:22:53.277Z,34.99
2023-06-19T16:25:19.751Z,37.36
2023-06-19T16:27:46.214Z,38.80
2023-06-19T16:30:12.795Z,39.57
2023-06-19T16:32:39.332Z,37.38
2023-06-19T16:35:06.379Z,36.45
2023-06-19T16:37:32.868Z,36.73
2023-06-19T16:39:59.313Z,36.72
2023-06-19T16:42:26.635Z,34.49
2023-06-19T16:44:54.326Z,34.27
2023-06-19T16:47:21.064Z,32.90
2023-06-19T16:49:47.535Z,32.14
2023-06-19T16:52:14.137Z,30.95
2023-06-19T16:54:40.604Z,30.74
2023-06-19T16:57:07.144Z,30.57
2023-06-19T16:59:33.561Z,30.20
2023-06-19T17:02:00.030Z,30.09
2023-06-19T17:04:26.446Z,29.76
2023-06-19T17:06:52.859Z,29.89
2023-06-19T17:09:19.263Z,30.30
2023-06-19T17:11:45.704Z,30.30
2023-06-19T17:14:12.122Z,30.56
2023-06-19T17:16:38.574Z,30.22
2023-06-19T17:19:06.502Z,30.20
2023-06-19T17:21:33.247Z,30.17
2023-06-19T17:23:59.681Z,29.84
2023-06-19T17:26:26.217Z,29.63
2023-06-19T17:28:52.621Z,29.42
2023-06-19T17:31:19.026Z,29.47
2023-06-19T17:33:45.422Z,29.68
2023-06-19T17:36:11.821Z,29.42
2023-06-19T17:38:38.290Z,29.13
2023-06-19T17:41:05.390Z,28.87
2023-06-19T17:43:31.873Z,29.18
2023-06-19T17:45:58.319Z,28.94
2023-06-19T17:48:24.760Z,28.98
2023-06-19T17:50:51.176Z,28.54
2023-06-19T17:53:17.602Z,28.63
2023-06-19T17:55:44.373Z,28.79
2023-06-19T17:58:10.879Z,28.78
2023-06-19T18:00:37.341Z,28.73
2023-06-19T18:03:05.441Z,28.25
2023-06-19T18:05:31.973Z,28.33
2023-06-19T18:07:58.416Z,28.27
2023-06-19T18:10:25.034Z,28.07
2023-06-19T18:12:51.569Z,28.31
2023-06-19T18:15:18.112Z,28.23
2023-06-19T18:17:44.573Z,28.42
2023-06-19T18:20:11.920Z,28.32
2023-06-19T18:22:39.617Z,28.38
2023-06-19T18:25:06.460Z,28.90
2023-06-19T18:27:33.399Z,28.63
2023-06-19T18:30:02.221Z,28.14
2023-06-19T18:32:30.785Z,28.16
2023-06-19T18:34:57.238Z,28.26
2023-06-19T18:37:23.698Z,28.36
2023-06-19T18:39:52.976Z,28.55
2023-06-19T18:42:19.380Z,28.02
2023-06-19T18:44:45.781Z,27.77
2023-06-19T18:47:12.181Z,27.67
2023-06-19T18:49:38.612Z,27.81
2023-06-19T18:52:05.508Z,27.90
2023-06-19T18:54:31.919Z,27.29
2023-06-19T18:56:58.341Z,27.06
2023-06-19T18:59:24.785Z,26.93
2023-06-19T19:01:51.252Z,26.74
2023-06-19T19:04:17.778Z,26.76
2023-06-19T19:06:44.183Z,26.63
2023-06-19T19:09:10.689Z,26.61
2023-06-19T19:11:37.151Z,26.44
2023-06-19T19:14:03.640Z,26.27
2023-06-19T19:16:30.101Z,26.30
2023-06-19T19:18:56.527Z,26.02
2023-06-19T19:21:22.956Z,26.01
2023-06-19T19:23:49.405Z,25.97
2023-06-19T19:26:15.840Z,25.84
2023-06-19T19:28:42.249Z,25.63
2023-06-19T19:31:08.715Z,25.70
2023-06-19T19:33:35.191Z,25.66
2023-06-19T19:36:02.300Z,25.50
2023-06-19T19:38:28.707Z,25.51
2023-06-19T19:40:55.109Z,25.45
2023-06-19T19:43:21.514Z,25.36
2023-06-19T19:45:48.054Z,25.18
2023-06-19T19:48:14.552Z,25.10
2023-06-19T19:50:40.961Z,25.13
2023-06-19T19:53:07.357Z,25.11
2023-06-19T19:55:33.825Z,25.01
2023-06-19T19:58:01.952Z,25.01
2023-06-19T20:00:29.158Z,24.87
2023-06-19T20:02:55.649Z,24.78
2023-06-19T20:05:22.136Z,24.74
2023-06-19T20:07:48.576Z,24.75
2023-06-19T20:10:15.080Z,24.60
2023-06-19T20:12:41.484Z,24.52
2023-06-19T20:15:08.616Z,24.55
2023-06-19T20:17:35.078Z,24.50
2023-06-19T20:20:04.932Z,24.42
2023-06-19T20:22:31.410Z,24.47
2023-06-19T20:24:57.836Z,24.40
2023-06-19T20:27:24.247Z,24.39
2023-06-19T20:29:50.652Z,24.31
2023-06-19T20:32:17.060Z,24.11
2023-06-19T20:34:43.488Z,24.26
2023-06-19T20:37:09.993Z,24.17
2023-06-19T20:39:36.417Z,24.08
2023-06-19T20:42:03.600Z,24.17
2023-06-19T20:44:30.288Z,24.10
2023-06-19T20:46:58.523Z,24.04
2023-06-19T20:49:26.311Z,23.95
2023-06-19T20:51:52.768Z,23.91
2023-06-19T20:54:20.078Z,23.84
2023-06-19T20:56:46.466Z,23.89
2023-06-19T20:59:13.057Z,23.89
2023-06-19T21:01:40.474Z,23.84
2023-06-19T21:04:07.094Z,23.78
2023-06-19T21:06:34.592Z,23.74
2023-06-19T21:09:04.058Z,23.76
2023-06-19T21:11:30.522Z,23.70
2023-06-19T21:13:56.958Z,23.67
2023-06-19T21:16:23.873Z,23.56
2023-06-19T21:18:51.285Z,23.51
2023-06-19T21:21:17.714Z,23.58
2023-06-19T21:23:44.134Z,23.54
2023-06-19T21:26:10.550Z,23.41
2023-06-19T21:28:36.951Z,23.41
2023-06-19T21:31:03.350Z,23.38
2023-06-19T21:33:33.180Z,23.30
2023-06-19T21:35:59.639Z,23.21
2023-06-19T21:38:28.711Z,23.23
2023-06-19T21:40:55.141Z,23.27
2023-06-19T21:43:21.585Z,23.27
2023-06-19T21:45:48.147Z,23.21
2023-06-19T21:48:14.754Z,23.22
2023-06-19T21:50:41.218Z,23.14
2023-06-19T21:53:07.655Z,23.17
2023-06-19T21:55:34.162Z,23.07
2023-06-19T21:58:01.009Z,23.09
2023-06-19T22:00:28.956Z,23.10
2023-06-19T22:02:57.062Z,23.01
2023-06-19T22:05:23.576Z,22.97
2023-06-19T22:07:50.332Z,22.97
2023-06-19T22:10:17.126Z,22.94
2023-06-19T22:12:43.535Z,22.85
2023-06-19T22:15:10.411Z,22.83
2023-06-19T22:17:36.937Z,22.85
2023-06-19T22:20:04.589Z,22.72
2023-06-19T22:22:31.033Z,22.83
2023-06-19T22:24:57.485Z,22.81
2023-06-19T22:27:23.924Z,22.74
2023-06-19T22:29:50.362Z,22.73
2023-06-19T22:32:16.797Z,22.69
2023-06-19T22:34:43.220Z,22.68
2023-06-19T22:37:09.668Z,22.67
2023-06-19T22:39:36.074Z,22.66
2023-06-19T22:42:03.215Z,22.71
2023-06-19T22:44:29.632Z,22.63
2023-06-19T22:46:56.227Z,22.59
2023-06-19T22:49:22.620Z,22.55
2023-06-19T22:51:49.017Z,22.52
2023-06-19T22:54:15.435Z,22.51
2023-06-19T22:56:41.884Z,22.55
2023-06-19T22:59:08.319Z,22.49
2023-06-19T23:01:34.975Z,22.48
2023-06-19T23:04:01.523Z,22.51
2023-06-19T23:06:27.942Z,22.39
2023-06-19T23:08:54.343Z,22.37
2023-06-19T23:11:20.744Z,22.21
2023-06-19T23:13:47.234Z,22.23
2023-06-19T23:16:13.673Z,22.26
2023-06-19T23:18:40.082Z,22.25
2023-06-19T23:21:06.487Z,22.08
2023-06-19T23:23:33.572Z,22.16
2023-06-19T23:26:02.603Z,22.16
2023-06-19T23:28:32.480Z,22.13
2023-06-19T23:30:59.808Z,22.21
2023-06-19T23:33:26.984Z,22.18
2023-06-19T23:35:57.309Z,22.06
2023-06-19T23:38:25.233Z,22.04
2023-06-19T23:40:52.100Z,22.07
2023-06-19T23:43:19.030Z,22.12
2023-06-19T23:45:46.021Z,22.10
2023-06-19T23:48:12.750Z,22.04
2023-06-19T23:50:39.681Z,21.99
2023-06-19T23:53:06.369Z,21.88
2023-06-19T23:55:32.788Z,21.90
2023-06-19T23:57:59.170Z,21.95
